Queen Valley, Arizona
Current Conditions -  °F | °C
As of 11:50 PM on Saturday 25 Oct 2014 (Local Time) from KIWA Reporting Station
Few Clouds Few Clouds  
Wind Chill: 72°   Ceiling: Unl
Heat Index: 72°   Visibility: 20mi
Dew Point: 54°   Wind: 3mph
Humidity: 53%   Direction: 100°E
Pressure: 29.94"   Gusts: NA
Location:  33.2782°N, 111.363°W
Report Text: KIWA 260650Z 10003KT 20SM FEW200 22/12 A2994 RMK LAST
Loading
Personal Weather Stations






























Interactive Weather Map
Tropical Storm Tracking
New forecast layout! Learn more

10-Day Weather Forecast

Advertisements
Track Severe Weather on mobile